ADDS METAR Data INFO
IDs: Format: Raw Decoded Include TAF

Data at: 1515 UTC 23 Oct 2017

PAMB 231456Z AUTO 00000KT 9SM -SN SCT002 SCT080 M04/M05 A2966 RMK AO2 SLP051 P0000 60000 T10441050 51005 FZRANO $
PAMB 231441Z AUTO 03005KT 5SM -SN BR FEW004 SCT023 BKN080 M04/M04 A2966 RMK AO2 P0000 FZRANO $
PAMB 231421Z AUTO VRB03KT 3SM -SN BR FEW006 SCT015 OVC026 M04/M04 A2966 RMK AO2 P0000 FZRANO $
PAMB 231356Z AUTO 00000KT 3SM -SN BR SCT006 OVC011 M04/M04 A2966 RMK AO2 SNB42 SLP051 P0000 T10391044 FZRANO $
PAMB 231353Z AUTO 04007KT 3SM -SN BR SCT006 BKN013 OVC018 M04/M04 A2966 RMK AO2 SNB42 P0000 FZRANO $
PAMB 231350Z AUTO 04007KT 2 1/2SM -SN BR SCT006 BKN015 OVC075 M04/M04 A2966 RMK AO2 VIS 1 1/2V5 SNB42 CIG 011V023 P0000 FZRANO $
PAMB 231343Z AUTO 04007KT 6SM -SN BR SCT006 BKN013 OVC090 M04/M04 A2966 RMK AO2 SNB42 P0000 FZRANO $
PAMB 231256Z AUTO 04006KT 10SM FEW004 SCT070 BKN120 M05/M06 A2965 RMK AO2 SLP048 T10501056 FZRANO $
PAMB 231156Z AUTO 03005KT 10SM SCT009 M06/M06 A2965 RMK AO2 SLP046 60000 70002 T10561061 11033 21061 50005 FZRANO $
PAMB 231151Z AUTO 03005KT 8SM BKN009 M06/M06 A2965 RMK AO2 FZRANO $
PAMB 231132Z AUTO 02006KT 2 1/2SM BR BKN009 BKN037 M06/M06 A2965 RMK AO2 FZRANO $
PAMB 231126Z AUTO 02006KT 9SM BKN011 M05/M06 A2965 RMK AO2 FZRANO $
PAMB 231056Z AUTO 02005KT 10SM CLR M06/M06 A2964 RMK AO2 SLP045 T10561061 FZRANO $
PAMB 230956Z AUTO 04003KT 10SM SCT046 M04/M04 A2963 RMK AO2 SLP040 T10391044 FZRANO $
PAMB 230856Z AUTO 00000KT 10SM FEW090 M04/M05 A2962 RMK AO2 SNB30E39 SLP036 P0000 60000 T10441050 400171078 51017 FZRANO $
PAMB 230756Z AUTO 07004KT 10SM BKN110 M04/M05 A2960 RMK AO2 SLP031 T10441050 FZRANO $
PAMB 230656Z AUTO 00000KT 10SM CLR M04/M06 A2959 RMK AO2 SLP025 T10441056 FZRANO $
PAMB 230556Z AUTO 18006KT 10SM CLR M03/M04 A2957 RMK AO2 SLP019 60001 T10281039 10017 21028 51015 FZRANO $
PAMB 230456Z AUTO 16011G18KT 10SM FEW024 BKN032 M01/M02 A2955 RMK AO2 UPB07E12SNE07 SLP015 P0000 T10061017 FZRANO $
PAMB 230434Z AUTO 16007KT 10SM FEW024 OVC032 M01/M02 A2955 RMK AO2 UPB07E12SNE07 P0000 FZRANO $
PAMB 230356Z AUTO 08005KT 9SM -SN FEW017 BKN028 OVC055 M02/M02 A2954 RMK AO2 SNB11 SLP009 P0001 T10171022 FZRANO $
PAMB 230256Z AUTO 15004KT 10SM BKN045 OVC055 M02/M02 A2952 RMK AO2 SNE41 SLP003 P0000 60000 T10171022 53007 FZRANO $
PAMB 230211Z AUTO 17006KT 3SM -SN BR FEW011 BKN033 OVC045 M01/M02 A2952 RMK AO2 P0000 FZRANO $
PAMB 230200Z AUTO 17006KT 3SM -SN BR SCT011 BKN028 OVC060 M01/M02 A2952 RMK AO2 CIG 022V038 P0000 FZRANO $
PAMB 230156Z AUTO 16005KT 1 1/4SM -SN BR SCT011 BKN028 OVC060 M01/M02 A2952 RMK AO2 SNB36 CIG 022V038 SLP002 P0000 T10111022 FZRANO $
PAMB 230152Z AUTO 14004KT 3/4SM -SN BR SCT011 BKN025 OVC049 M01/M02 A2952 RMK AO2 SNB36 P0000 FZRANO $
PAMB 230146Z AUTO 17004KT 1 3/4SM -SN BR FEW013 BKN025 BKN049 M01/M03 A2952 RMK AO2 VIS 1/2V5 SNB36 P0000 FZRANO $
PAMB 230056Z AUTO 00000KT 10SM FEW008 01/M03 A2950 RMK AO2 UPB13E16SNE13 SLP997 P0000 T00061028 FZRANO $
PAMB 230007Z AUTO 10004KT 9SM -SN BKN008 BKN014 OVC028 00/M02 A2949 RMK AO2 CIG 006V010 P0000 FZRANO $
PAMB 222356Z AUTO 06004KT 5SM -SN BR SCT008 BKN012 OVC028 00/M02 A2949 RMK AO2 UPB05E11SNE05B35 SLP992 P0000 60001 T00001017 10000 21056 51006 FZRANO $
PAMB 222352Z AUTO 06004KT 6SM -SN BR FEW005 SCT011 BKN017 M01/M02 A2949 RMK AO2 UPB05E11SNE05B35 P0000 FZRANO $
PAMB 222341Z AUTO 04005KT 2SM -SN BR FEW004 SCT009 BKN029 M01/M03 A2949 RMK AO2 UPB05E11SNE05B35 P0000 FZRANO $
PAMB 222259Z AUTO 05006KT 7SM -SN SCT008 BKN047 OVC090 M01/M02 A2948 RMK AO2 P0000 FZRANO $
PAMB 222256Z AUTO 04006KT 4SM -SN BR BKN008 BKN015 OVC085 M01/M02 A2948 RMK AO2 CIG 004V011 SLP989 P0000 T10111022 FZRANO $
PAMB 222253Z AUTO 05006KT 1 3/4SM -SN BR BKN008 BKN015 OVC070 M01/M02 A2948 RMK AO2 CIG 004V011 P0000 FZRANO $
PAMB 222250Z AUTO 04005KT 1SM -SN BR SCT004 BKN010 OVC047 M02/M03 A2948 RMK AO2 P0000 FZRANO $
PAMB 222246Z AUTO 05005KT 1/2SM -SN FZFG SCT004 BKN008 OVC047 M02/M03 A2948 RMK AO2 CIG 006V010 P0000 FZRANO $
PAMB 222241Z AUTO 05005KT 3/4SM -SN BR BKN004 BKN008 OVC015 M02/M03 A2948 RMK AO2 P0000 FZRANO $
PAMB 222239Z AUTO 04005KT 1 1/2SM -SN BR BKN004 BKN008 OVC015 M02/M03 A2948 RMK AO2 P0000 FZRANO $
PAMB 222156Z AUTO 04006KT 8SM -SN BKN004 BKN038 OVC070 M03/M03 A2947 RMK AO2 SLP986 P0000 T10281033 FZRANO $
PAMB 222133Z AUTO 04007KT 8SM -SN OVC004 M03/M04 A2947 RMK AO2 P0000 FZRANO $
PAMB 222056Z AUTO 02005KT 9SM -SN OVC006 M03/M04 A2946 RMK AO2 SNB1958E08B48 SLP982 P0000 60001 T10331044 53014 FZRANO $
PAMB 222045Z AUTO 01005KT 10SM OVC006 M03/M04 A2946 RMK AO2 SNB1958E08 P0000 FZRANO $
PAMB 222027Z AUTO 03008KT 10SM BKN004 BKN014 OVC021 M03/M04 A2944 RMK AO2 SNB1958E08 P0000 FZRANO $
PAMB 222012Z AUTO 04007KT 9SM SCT004 BKN014 M04/M04 A2944 RMK AO2 SNB1958E08 P0000 FZRANO $
PAMB 222005Z AUTO 03008KT 9SM -SN FEW004 SCT014 BKN025 M04/M05 A2943 RMK AO2 SNB1958 P0000 FZRANO $
PAMB 221956Z AUTO 03007KT 10SM FEW014 SCT027 M04/M05 A2943 RMK AO2 SNE17 SLP972 P0001 T10391050 FZRANO $
PAMB 221929Z AUTO 03008KT 10SM SCT007 BKN017 OVC027 M04/M05 A2942 RMK AO2 SNE17 P0001 FZRANO $
PAMB 221856Z AUTO 34006KT 6SM -SN BR OVC007 M05/M06 A2942 RMK AO2 SNE1758B29 SLP967 P0000 T10501056 FZRANO $
PAMB 221756Z AUTO 02010KT 9SM -SN OVC005 M06/M06 A2940 RMK AO2 SNB29 SLP960 P0000 60000 T10561061 11056 21067 50006 FZRANO $
PAMB 221751Z AUTO 02008KT 9SM -SN OVC005 M06/M07 A2940 RMK AO2 SNB29 P0000 FZRANO $
PAMB 221656Z AUTO 03007KT 10SM OVC007 M06/M07 A2939 RMK AO2 SNE40 SLP957 P0000 T10561067 FZRANO $
PAMB 221556Z AUTO 03010KT 7SM -SN OVC007 M06/M07 A2938 RMK AO2 SLP954 P0000 T10611067 FZRANO $
PAMB 221554Z AUTO 03010KT 6SM -SN BR OVC009 M06/M07 A2938 RMK AO2 CIG 007V011 P0000 FZRANO $
PAMB 221545Z AUTO 03008KT 2SM -SN BR BKN009 OVC016 M06/M07 A2937 RMK AO2 CIG 007V011 P0000 FZRANO $
PAMB 221536Z AUTO 02009KT 1SM -SN BR BKN009 BKN016 OVC020 M06/M07 A2937 RMK AO2 CIG 007V011 P0000 FZRANO $
PAMB 221533Z AUTO 02011KT 1 1/4SM -SN BR SCT009 BKN016 OVC020 M06/M07 A2937 RMK AO2 P0000 FZRANO $
PAMB 221526Z AUTO 03011KT 2SM -SN BR SCT009 BKN014 OVC020 M06/M07 A2936 RMK AO2 P0000 FZRANO $
PAMB 221516Z AUTO 03010KT 2SM -SN BR BKN009 BKN014 OVC020 M06/M07 A2936 RMK AO2 CIG 007V011 P0000 FZRANO $
PAMB 221456Z AUTO 03009KT 1SM -SN BR OVC009 M06/M07 A2936 RMK AO2 CIG 006V011 SLP949 P0000 60000 T10561067 50005 FZRANO $
PAMB 221448Z AUTO 03011KT 1SM -SN BR OVC009 M06/M07 A2936 RMK AO2 CIG 006V012 P0000 FZRANO $
PAMB 221442Z AUTO 02009KT 1/2SM SN FZFG BKN007 OVC012 M06/M07 A2936 RMK AO2 CIG 006V010 P0000 FZRANO $
PAMB 221430Z AUTO 02008KT 3/4SM -SN BR BKN009 OVC015 M06/M07 A2936 RMK AO2 CIG 007V012 P0000 FZRANO $
PAMB 221416Z AUTO 03007KT 1SM -SN BR BKN011 BKN034 OVC045 M06/M07 A2936 RMK AO2 P0000 FZRANO $
PAMB 221410Z AUTO 02007KT 2SM -SN BR SCT015 BKN020 OVC047 M06/M07 A2936 RMK AO2 P0000 FZRANO $
PAMB 221356Z AUTO 03006KT 9SM -SN BKN034 OVC044 M06/M07 A2936 RMK AO2 SLP950 P0000 T10561067 FZRANO $
PAMB 221332Z AUTO 02006KT 6SM -SN BR SCT017 BKN032 OVC045 M06/M07 A2936 RMK AO2 P0000 FZRANO $
PAMB 221323Z AUTO 03006KT 3SM -SN BR BKN019 BKN030 OVC043 M06/M06 A2936 RMK AO2 P0000 FZRANO $
PAMB 221311Z AUTO 03007KT 1 3/4SM -SN BR BKN017 BKN025 OVC031 M06/M06 A2936 RMK AO2 P0000 FZRANO $
PAMB 221307Z AUTO 02008KT 3SM -SN BR SCT017 BKN022 OVC040 M06/M06 A2936 RMK AO2 P0000 FZRANO $
PAMB 221256Z AUTO 02005KT 10SM -SN SCT025 BKN031 OVC060 M06/M07 A2936 RMK AO2 SNB54 SLP948 P0000 T10561067 FZRANO $
PAMB 221156Z AUTO 05007KT 10SM BKN100 OVC110 M07/M08 A2935 RMK AO2 SLP944 7//// T10671078 11061 21078 51003 FZRANO $
PAMB 221056Z AUTO 04006KT 10SM SCT110 M08/M08 A2935 RMK AO2 SLP944 T10781083 FZRANO $
PAMB 220956Z AUTO 05006KT 10SM CLR M07/M08 A2934 RMK AO2 SLP942 T10721078 FZRANO $
PAMB 220856Z AUTO 04004KT 10SM CLR M07/M08 A2934 RMK AO2 SLP941 T10721083 410111078 51011 FZRANO $
PAMB 220756Z AUTO 06005KT 9SM CLR M07/M08 A2933 RMK AO2 SLP938 T10671078 FZRANO $
PAMB 220656Z AUTO 05004KT 10SM CLR M07/M08 A2932 RMK AO2 SLP935 T10671078 FZRANO $
PAMB 220556Z AUTO 07004KT 10SM CLR M07/M07 A2930 RMK AO2 SLP929 6//// T10671072 11017 21067 51006 FZRANO $
PAMB 220456Z AUTO 03005KT 10SM CLR M05/M06 A2930 RMK AO2 SLP929 T10501061 FZRANO $
PAMB 220356Z AUTO 01003KT 10SM CLR M04/M06 A2929 RMK AO2 SLP926 T10441061 FZRANO $